Terminal Aerodrome Forecast
Issued by NWS

Home | Current Version | Previous Version | Text Only | Print | Product List | Glossary On
Versions: 1 2 3 4 5 6 7 8 9 10 11 12 13 14 15 16 17 18 19 20 21 22 23 24 25 26 27 28 29 30 31 32 33 34 35 36
000
FTUS43 KGRB 301700
TAFRHI
TAF
KRHI 301721Z 3018/3118 24004KT P6SM SCT060 BKN100
      TEMPO 3020/3024 BKN060
     FM310000 22004KT P6SM SCT040 OVC080
     FM310400 23004KT P6SM SCT018 OVC040
      TEMPO 3105/3109 5SM -SN BKN018
     FM310900 25004KT P6SM OVC018
     FM311400 32006KT P6SM BKN020 OVC060=

USA.gov is the U.S. government's official web portal to all federal, state and local government web resources and services.